createdAt,value
2022-09-10T00:00:56.326Z,99724.03
2022-09-10T00:05:57.884Z,99713.16
2022-09-10T00:11:05.215Z,99718.22
2022-09-10T00:16:10.131Z,99719.09
2022-09-10T00:21:15.047Z,99709.03
2022-09-10T00:26:28.681Z,99706.66
2022-09-10T00:31:32.271Z,99693.78
2022-09-10T00:36:39.705Z,99686.13
2022-09-10T00:41:43.969Z,99697.84
2022-09-10T00:46:51.662Z,99693.59
2022-09-10T00:51:53.916Z,99696.16
2022-09-10T00:57:01.380Z,99686.94
2022-09-10T01:02:03.981Z,99685.03
2022-09-10T01:07:09.845Z,99679.91
2022-09-10T01:12:53.601Z,99669.69
2022-09-10T01:18:22.768Z,99656.16
2022-09-10T01:23:54.529Z,99653.69
2022-09-10T01:29:02.135Z,99648.59
2022-09-10T01:34:16.868Z,99651.22
2022-09-10T01:39:22.125Z,99654.66
2022-09-10T01:44:44.513Z,99633.44
2022-09-10T01:50:04.006Z,99637.69
2022-09-10T01:55:08.907Z,99641.97
2022-09-10T02:00:19.000Z,99636.09
2022-09-10T02:05:23.670Z,99630.19
2022-09-10T02:10:30.141Z,99634.44
2022-09-10T02:15:33.218Z,99636.25
2022-09-10T02:20:48.865Z,99643.88
2022-09-10T02:25:50.616Z,99634.59
2022-09-10T02:30:52.885Z,99622.78
2022-09-10T02:35:55.148Z,99613.50
2022-09-10T02:40:59.616Z,99611.81
2022-09-10T02:46:02.420Z,99612.78
2022-09-10T02:51:04.732Z,99609.47
2022-09-10T02:56:08.806Z,99607.81
2022-09-10T03:01:14.928Z,99619.66
2022-09-10T03:06:18.733Z,99640.00
2022-09-10T03:11:24.086Z,99643.38
2022-09-10T03:16:26.988Z,99630.78
2022-09-10T03:21:30.139Z,99634.97
2022-09-10T03:26:33.261Z,99633.28
2022-09-10T03:31:36.079Z,99628.34
2022-09-10T03:36:38.082Z,99628.56
2022-09-10T03:41:42.705Z,99633.72
2022-09-10T03:46:45.573Z,99629.56
2022-09-10T03:51:49.333Z,99637.22
2022-09-10T03:56:51.772Z,99634.72
2022-09-10T04:01:53.351Z,99630.53
2022-09-10T04:06:55.445Z,99628.91
2022-09-10T04:11:57.266Z,99634.13
2022-09-10T04:17:02.265Z,99637.56
2022-09-10T04:22:05.743Z,99636.72
2022-09-10T04:27:07.785Z,99633.38
2022-09-10T04:32:09.690Z,99631.72
2022-09-10T04:37:12.721Z,99632.53
2022-09-10T04:42:20.263Z,99629.13
2022-09-10T04:47:23.344Z,99631.59
2022-09-10T04:52:25.156Z,99617.28
2022-09-10T04:57:27.980Z,99620.59
2022-09-10T05:02:29.786Z,99618.84
2022-09-10T05:07:31.574Z,99623.81
2022-09-10T05:12:33.234Z,99622.03
2022-09-10T05:17:35.033Z,99626.88
2022-09-10T05:22:40.454Z,99626.72
2022-09-10T05:27:43.021Z,99636.84
2022-09-10T05:32:53.488Z,99637.53
2022-09-10T05:38:00.969Z,99647.69
2022-09-10T05:43:05.922Z,99652.78
2022-09-10T05:48:07.809Z,99657.13
2022-09-10T05:53:10.021Z,99668.13
2022-09-10T05:58:13.627Z,99667.22
2022-09-10T06:03:16.991Z,99658.44
2022-09-10T06:08:22.733Z,99662.28
2022-09-10T06:13:26.476Z,99662.78
2022-09-10T06:18:29.942Z,99678.59
2022-09-10T06:23:33.022Z,99671.63
2022-09-10T06:28:35.274Z,99683.56
2022-09-10T06:33:37.508Z,99668.50
2022-09-10T06:38:41.086Z,99675.00
2022-09-10T06:43:46.775Z,99672.03
2022-09-10T06:49:18.793Z,99669.19
2022-09-10T06:54:22.816Z,99672.28
2022-09-10T06:59:24.857Z,99687.19
2022-09-10T07:04:26.707Z,99677.44
2022-09-10T07:09:32.167Z,99683.75
2022-09-10T07:14:35.750Z,99678.19
2022-09-10T07:19:41.261Z,99683.03
2022-09-10T07:24:55.258Z,99681.28
2022-09-10T07:30:06.266Z,99684.28
2022-09-10T07:35:07.993Z,99679.22
2022-09-10T07:40:10.248Z,99682.00
2022-09-10T07:45:16.244Z,99677.63
2022-09-10T07:50:19.313Z,99687.78
2022-09-10T07:55:25.953Z,99676.63
2022-09-10T08:00:28.218Z,99686.47
2022-09-10T08:05:37.256Z,99684.66
2022-09-10T08:10:39.180Z,99682.41
2022-09-10T08:15:44.008Z,99684.63
2022-09-10T08:20:53.274Z,99672.72
2022-09-10T08:25:55.188Z,99670.94
2022-09-10T08:31:02.027Z,99675.59
2022-09-10T08:36:11.982Z,99674.53
2022-09-10T08:41:38.405Z,99670.97
2022-09-10T08:46:57.815Z,99665.69
2022-09-10T08:52:11.324Z,99668.03
2022-09-10T08:57:26.310Z,99661.56
2022-09-10T09:02:48.464Z,99667.38
2022-09-10T09:07:53.271Z,99670.94
2022-09-10T09:12:58.121Z,99672.22
2022-09-10T09:18:21.108Z,99676.13
2022-09-10T09:24:13.132Z,99670.22
2022-09-10T09:29:36.118Z,99677.28
2022-09-10T09:34:43.941Z,99666.09
2022-09-10T09:40:06.207Z,99664.28
2022-09-10T09:45:34.987Z,99659.38
2022-09-10T09:50:41.769Z,99655.88
2022-09-10T09:55:47.232Z,99658.22
2022-09-10T10:00:50.001Z,99656.22
2022-09-10T10:06:01.675Z,99650.59
2022-09-10T10:11:04.858Z,99653.81
2022-09-10T10:16:23.188Z,99646.09
2022-09-10T10:21:31.956Z,99633.16
2022-09-10T10:26:35.638Z,99637.72
2022-09-10T10:31:40.596Z,99633.75
2022-09-10T10:36:53.492Z,99638.81
2022-09-10T10:42:04.399Z,99627.97
2022-09-10T10:47:43.228Z,99629.38
2022-09-10T10:53:02.274Z,99626.22
2022-09-10T10:58:37.576Z,99619.53
2022-09-10T11:03:44.921Z,99623.97
2022-09-10T11:09:24.524Z,99632.25
2022-09-10T11:14:48.800Z,99617.88
2022-09-10T11:20:27.937Z,99612.69
2022-09-10T11:26:15.682Z,99612.47
2022-09-10T11:31:40.559Z,99610.41
2022-09-10T11:36:55.926Z,99611.06
2022-09-10T11:41:59.009Z,99606.31
2022-09-10T11:47:09.091Z,99599.09
2022-09-10T11:52:12.197Z,99598.38
2022-09-10T11:57:48.293Z,99590.50
2022-09-10T12:03:27.144Z,99588.25
2022-09-10T12:08:48.450Z,99590.81
2022-09-10T12:13:50.803Z,99598.63
2022-09-10T12:18:56.096Z,99604.03
2022-09-10T12:23:59.912Z,99623.91
2022-09-10T12:29:03.287Z,99623.78
2022-09-10T12:34:15.032Z,99618.81
2022-09-10T12:39:25.344Z,99614.06
2022-09-10T12:44:36.487Z,99607.69
2022-09-10T12:49:53.056Z,99600.09
2022-09-10T12:55:15.117Z,99589.19
2022-09-10T13:00:22.213Z,99581.22
2022-09-10T13:05:45.096Z,99582.47
2022-09-10T13:11:06.475Z,99567.78
2022-09-10T13:16:15.741Z,99561.38
2022-09-10T13:21:23.854Z,99544.97
2022-09-10T13:26:28.605Z,99547.34
2022-09-10T13:31:38.433Z,99531.94
2022-09-10T13:37:11.277Z,99542.16
2022-09-10T13:42:35.434Z,99531.41
2022-09-10T13:47:47.516Z,99538.47
2022-09-10T13:52:53.263Z,99544.22
2022-09-10T13:58:00.584Z,99537.69
2022-09-10T14:03:02.381Z,99542.34
2022-09-10T14:08:27.280Z,99533.41
2022-09-10T14:13:56.074Z,99540.22
2022-09-10T14:19:02.024Z,99537.28
2022-09-10T14:24:04.070Z,99540.28
2022-09-10T14:29:24.852Z,99536.53
2022-09-10T14:34:34.906Z,99576.47
2022-09-10T14:39:44.434Z,99580.09
2022-09-10T14:44:47.265Z,99584.13
2022-09-10T14:49:48.965Z,99585.38
2022-09-10T14:54:51.184Z,99588.78
2022-09-10T14:59:57.231Z,99600.34
2022-09-10T15:04:59.250Z,99625.66
2022-09-10T15:10:01.706Z,99624.75
2022-09-10T15:15:04.204Z,99637.97
2022-09-10T15:20:06.774Z,99628.81
2022-09-10T15:25:28.237Z,99618.94
2022-09-10T15:30:29.996Z,99622.16
2022-09-10T15:35:31.756Z,99623.78
2022-09-10T15:55:25.034Z,99622.59
2022-09-10T16:00:26.846Z,99636.03
2022-09-10T16:05:30.782Z,99637.94
2022-09-10T16:10:33.340Z,99630.56
2022-09-10T16:15:36.010Z,99632.53
2022-09-10T16:20:37.852Z,99615.94
2022-09-10T16:25:39.444Z,99608.50
2022-09-10T16:30:41.592Z,99609.66
2022-09-10T16:35:43.427Z,99606.84
2022-09-10T16:40:45.780Z,99606.25
2022-09-10T16:45:50.897Z,99611.63
2022-09-10T16:50:52.481Z,99595.94
2022-09-10T16:56:00.860Z,99600.50
2022-09-10T17:01:04.811Z,99605.78
2022-09-10T17:06:06.599Z,99605.16
2022-09-10T17:11:08.854Z,99608.13
2022-09-10T17:16:30.538Z,99597.59
2022-09-10T17:21:34.533Z,99603.69
2022-09-10T17:26:38.055Z,99606.34
2022-09-10T17:31:41.087Z,99620.91
2022-09-10T17:36:45.651Z,99631.28
2022-09-10T17:41:48.397Z,99638.28
2022-09-10T17:46:50.343Z,99646.16
2022-09-10T17:51:52.407Z,99643.66
2022-09-10T17:56:54.529Z,99644.78
2022-09-10T18:01:58.002Z,99656.75
2022-09-10T18:07:01.132Z,99663.84
2022-09-10T18:12:04.464Z,99657.16
2022-09-10T18:17:06.056Z,99660.75
2022-09-10T18:22:07.868Z,99657.50
2022-09-10T18:27:09.894Z,99657.66
2022-09-10T18:32:15.077Z,99668.75
2022-09-10T18:37:17.302Z,99668.88
2022-09-10T18:42:19.329Z,99683.41
2022-09-10T18:47:40.986Z,99683.47
2022-09-10T18:52:43.300Z,99684.44
2022-09-10T18:57:45.212Z,99697.22
2022-09-10T19:02:47.405Z,99690.63
2022-09-10T19:07:49.077Z,99691.63
2022-09-10T19:12:51.812Z,99691.63
2022-09-10T19:17:53.905Z,99685.78
2022-09-10T19:22:55.677Z,99692.66
2022-09-10T19:27:57.292Z,99707.13
2022-09-10T19:32:59.048Z,99705.41
2022-09-10T19:38:11.919Z,99713.09
2022-09-10T19:43:22.711Z,99705.56
2022-09-10T19:48:24.459Z,99709.84
2022-09-10T19:53:26.270Z,99705.63
2022-09-10T19:58:28.181Z,99707.31
2022-09-10T20:03:29.814Z,99710.72
2022-09-10T20:08:35.608Z,99708.09
2022-09-10T20:13:37.825Z,99703.91
2022-09-10T20:18:39.934Z,99697.09
2022-09-10T20:23:43.443Z,99703.81
2022-09-10T20:28:45.427Z,99708.88
2022-09-10T20:33:47.112Z,99706.28
2022-09-10T20:38:49.557Z,99708.81
2022-09-10T20:43:52.906Z,99713.00
2022-09-10T20:48:55.427Z,99710.47
2022-09-10T20:53:57.773Z,99705.38
2022-09-10T20:58:59.968Z,99711.28
2022-09-10T21:04:04.096Z,99706.19
2022-09-10T21:09:06.233Z,99698.56
2022-09-10T21:14:08.797Z,99704.50
2022-09-10T21:19:16.161Z,99699.41
2022-09-10T21:24:22.396Z,99704.50
2022-09-10T21:29:24.038Z,99708.81
2022-09-10T21:34:25.640Z,99709.66
2022-09-10T21:39:27.441Z,99703.72
2022-09-10T21:44:29.341Z,99698.69
2022-09-10T21:49:31.111Z,99697.88
2022-09-10T21:54:32.954Z,99694.53
2022-09-10T21:59:34.733Z,99699.66
2022-09-10T22:04:36.597Z,99695.47
2022-09-10T22:09:38.137Z,99695.50
2022-09-10T22:14:39.890Z,99692.16
2022-09-10T22:19:41.455Z,99690.50
2022-09-10T22:24:43.048Z,99683.81
2022-09-10T22:29:45.368Z,99693.97
2022-09-10T22:34:48.988Z,99690.63
2022-09-10T22:39:50.595Z,99690.69
2022-09-10T22:44:52.560Z,99690.69
2022-09-10T22:49:54.261Z,99687.31
2022-09-10T22:54:56.121Z,99700.06
2022-09-10T22:59:58.037Z,99702.63
2022-09-10T23:05:00.018Z,99704.34
2022-09-10T23:10:02.390Z,99713.69
2022-09-10T23:15:04.750Z,99708.63
2022-09-10T23:20:07.344Z,99709.53
2022-09-10T23:25:09.673Z,99713.75
2022-09-10T23:30:12.130Z,99710.44
2022-09-10T23:35:14.092Z,99711.38
2022-09-10T23:40:15.905Z,99713.03
2022-09-10T23:45:17.807Z,99712.19
2022-09-10T23:50:19.705Z,99702.94
2022-09-10T23:55:21.312Z,99714.91
